sensor_id;sensor_type;location;lat;lon;timestamp;pressure;altitude;pressure_sealevel;temperature;humidity
76095;BME280;64821;13.710;100.604;2023-09-08T00:00:48;100858.47;;;35.14;43.36
76095;BME280;64821;13.710;100.604;2023-09-08T00:01:53;100858.13;;;35.16;43.33
76095;BME280;64821;13.710;100.604;2023-09-08T00:02:57;100866.03;;;35.17;43.62
76095;BME280;64821;13.710;100.604;2023-09-08T00:04:02;100864.44;;;35.16;43.41
76095;BME280;64821;13.710;100.604;2023-09-08T00:05:06;100864.78;;;35.15;43.41
76095;BME280;64821;13.710;100.604;2023-09-08T00:06:09;100865.22;;;35.17;43.01
76095;BME280;64821;13.710;100.604;2023-09-08T00:07:13;100865.22;;;35.17;43.22
76095;BME280;64821;13.710;100.604;2023-09-08T00:08:17;100873.38;;;35.13;43.54
76095;BME280;64821;13.710;100.604;2023-09-08T00:09:21;100868.69;;;35.14;43.62
76095;BME280;64821;13.710;100.604;2023-09-08T00:10:24;100873.06;;;35.15;43.13
76095;BME280;64821;13.710;100.604;2023-09-08T00:11:28;100864.31;;;35.13;43.17
76095;BME280;64821;13.710;100.604;2023-09-08T00:12:32;100871.53;;;35.17;43.12
76095;BME280;64821;13.710;100.604;2023-09-08T00:13:36;100877.06;;;35.17;43.55
76095;BME280;64821;13.710;100.604;2023-09-08T00:14:40;100875.09;;;35.18;43.29
76095;BME280;64821;13.710;100.604;2023-09-08T00:15:44;100869.50;;;35.14;43.53
76095;BME280;64821;13.710;100.604;2023-09-08T00:16:48;100878.00;;;35.21;43.38
76095;BME280;64821;13.710;100.604;2023-09-08T00:17:53;100887.88;;;35.22;43.78
76095;BME280;64821;13.710;100.604;2023-09-08T00:18:57;100871.09;;;35.15;43.28
76095;BME280;64821;13.710;100.604;2023-09-08T00:20:01;100881.22;;;35.23;43.19
76095;BME280;64821;13.710;100.604;2023-09-08T00:21:05;100866.84;;;35.18;43.11
76095;BME280;64821;13.710;100.604;2023-09-08T00:22:09;100890.00;;;35.26;43.35
76095;BME280;64821;13.710;100.604;2023-09-08T00:23:13;100890.44;;;35.28;43.30
76095;BME280;64821;13.710;100.604;2023-09-08T00:24:16;100897.22;;;35.30;43.47
76095;BME280;64821;13.710;100.604;2023-09-08T00:25:20;100890.59;;;35.31;43.13
76095;BME280;64821;13.710;100.604;2023-09-08T00:26:24;100901.28;;;35.33;43.32
76095;BME280;64821;13.710;100.604;2023-09-08T00:27:28;100897.72;;;35.32;43.26
76095;BME280;64821;13.710;100.604;2023-09-08T00:28:31;100907.25;;;35.35;43.49
76095;BME280;64821;13.710;100.604;2023-09-08T00:29:36;100906.88;;;35.36;43.10
76095;BME280;64821;13.710;100.604;2023-09-08T00:30:39;100903.47;;;35.39;43.36
76095;BME280;64821;13.710;100.604;2023-09-08T00:31:43;100908.31;;;35.42;42.97
76095;BME280;64821;13.710;100.604;2023-09-08T00:32:47;100915.75;;;35.42;43.29
76095;BME280;64821;13.710;100.604;2023-09-08T00:33:52;100916.91;;;35.41;43.14
76095;BME280;64821;13.710;100.604;2023-09-08T00:34:56;100903.06;;;35.29;43.05
76095;BME280;64821;13.710;100.604;2023-09-08T00:36:00;100916.66;;;35.34;43.64
76095;BME280;64821;13.710;100.604;2023-09-08T00:37:04;100922.97;;;35.34;43.47
76095;BME280;64821;13.710;100.604;2023-09-08T00:38:08;100917.47;;;35.34;43.16
76095;BME280;64821;13.710;100.604;2023-09-08T00:39:11;100926.06;;;35.33;43.35
76095;BME280;64821;13.710;100.604;2023-09-08T00:40:15;100929.94;;;35.32;43.17
76095;BME280;64821;13.710;100.604;2023-09-08T00:41:19;100931.44;;;35.29;43.35
76095;BME280;64821;13.710;100.604;2023-09-08T00:42:23;100933.84;;;35.31;42.93
76095;BME280;64821;13.710;100.604;2023-09-08T00:43:27;100908.84;;;35.15;43.66
76095;BME280;64821;13.710;100.604;2023-09-08T00:44:30;100944.53;;;35.32;43.57
76095;BME280;64821;13.710;100.604;2023-09-08T00:45:38;100943.72;;;35.32;43.68
76095;BME280;64821;13.710;100.604;2023-09-08T00:46:42;100931.31;;;35.26;43.20
76095;BME280;64821;13.710;100.604;2023-09-08T00:47:46;100954.88;;;35.35;43.38
76095;BME280;64821;13.710;100.604;2023-09-08T00:48:49;100951.19;;;35.31;42.99
76095;BME280;64821;13.710;100.604;2023-09-08T00:49:55;100958.97;;;35.29;43.65
76095;BME280;64821;13.710;100.604;2023-09-08T00:50:59;100958.97;;;35.29;43.22
76095;BME280;64821;13.710;100.604;2023-09-08T00:52:03;100961.25;;;35.27;43.07
76095;BME280;64821;13.710;100.604;2023-09-08T00:53:07;100961.25;;;35.27;43.38
76095;BME280;64821;13.710;100.604;2023-09-08T00:54:12;100962.06;;;35.28;43.34
76095;BME280;64821;13.710;100.604;2023-09-08T00:55:16;100962.53;;;35.30;43.60
76095;BME280;64821;13.710;100.604;2023-09-08T00:56:21;100960.91;;;35.29;43.06
76095;BME280;64821;13.710;100.604;2023-09-08T00:57:25;100969.81;;;35.34;43.54
76095;BME280;64821;13.710;100.604;2023-09-08T00:58:29;100963.25;;;35.39;43.22
76095;BME280;64821;13.710;100.604;2023-09-08T00:59:36;100979.13;;;35.42;43.11
76095;BME280;64821;13.710;100.604;2023-09-08T01:00:44;100971.34;;;35.44;43.03
76095;BME280;64821;13.710;100.604;2023-09-08T01:01:47;100972.97;;;35.45;43.12
76095;BME280;64821;13.710;100.604;2023-09-08T01:02:51;100973.41;;;35.47;42.98
76095;BME280;64821;13.710;100.604;2023-09-08T01:03:55;100970.31;;;35.48;42.95
76095;BME280;64821;13.710;100.604;2023-09-08T01:05:01;100974.69;;;35.49;43.02
76095;BME280;64821;13.710;100.604;2023-09-08T01:06:05;100973.41;;;35.47;42.78
76095;BME280;64821;13.710;100.604;2023-09-08T01:07:09;100981.16;;;35.53;43.28
76095;BME280;64821;13.710;100.604;2023-09-08T01:08:14;100985.63;;;35.58;43.20
76095;BME280;64821;13.710;100.604;2023-09-08T01:09:18;100993.56;;;35.59;42.93
76095;BME280;64821;13.710;100.604;2023-09-08T01:10:23;100988.38;;;35.58;43.16
76095;BME280;64821;13.710;100.604;2023-09-08T01:11:27;100989.53;;;35.57;43.00
76095;BME280;64821;13.710;100.604;2023-09-08T01:12:31;100986.31;;;35.55;42.96
76095;BME280;64821;13.710;100.604;2023-09-08T01:13:35;100990.34;;;35.57;43.12
76095;BME280;64821;13.710;100.604;2023-09-08T01:14:39;100992.75;;;35.59;43.11
76095;BME280;64821;13.710;100.604;2023-09-08T01:15:42;101002.63;;;35.60;42.63
76095;BME280;64821;13.710;100.604;2023-09-08T01:16:46;101004.25;;;35.61;42.57
76095;BME280;64821;13.710;100.604;2023-09-08T01:17:50;100980.66;;;35.51;42.93
76095;BME280;64821;13.710;100.604;2023-09-08T01:18:54;101003.91;;;35.63;42.88
76095;BME280;64821;13.710;100.604;2023-09-08T01:20:05;101010.56;;;35.61;43.21
76095;BME280;64821;13.710;100.604;2023-09-08T01:23:02;101005.16;;;35.74;44.25
76095;BME280;64821;13.710;100.604;2023-09-08T01:24:22;101007.09;;;35.73;43.60
76095;BME280;64821;13.710;100.604;2023-09-08T01:25:40;101005.47;;;35.72;43.25
76095;BME280;64821;13.710;100.604;2023-09-08T01:26:48;101007.72;;;35.70;42.83
76095;BME280;64821;13.710;100.604;2023-09-08T01:27:53;101012.63;;;35.73;42.82
76095;BME280;64821;13.710;100.604;2023-09-08T01:28:58;101014.88;;;35.71;43.11
76095;BME280;64821;13.710;100.604;2023-09-08T01:30:03;101014.56;;;35.73;42.54
76095;BME280;64821;13.710;100.604;2023-09-08T01:31:07;101007.09;;;35.73;43.11
76095;BME280;64821;13.710;100.604;2023-09-08T01:32:12;101005.47;;;35.72;42.82
76095;BME280;64821;13.710;100.604;2023-09-08T01:33:16;101015.03;;;35.75;42.92
76095;BME280;64821;13.710;100.604;2023-09-08T01:34:20;101011.09;;;35.76;42.83
76095;BME280;64821;13.710;100.604;2023-09-08T01:35:25;101007.22;;;35.77;43.14
76095;BME280;64821;13.710;100.604;2023-09-08T01:36:29;101017.56;;;35.80;42.70
76095;BME280;64821;13.710;100.604;2023-09-08T01:37:32;101010.59;;;35.82;42.82
76095;BME280;64821;13.710;100.604;2023-09-08T01:38:36;101007.50;;;35.84;42.68
76095;BME280;64821;13.710;100.604;2023-09-08T01:39:40;101017.81;;;35.87;42.44
76095;BME280;64821;13.710;100.604;2023-09-08T01:40:45;101007.41;;;35.92;42.61
76095;BME280;64821;13.710;100.604;2023-09-08T01:41:49;101011.06;;;35.96;42.36
76095;BME280;64821;13.710;100.604;2023-09-08T01:42:53;101009.59;;;35.99;42.64
76095;BME280;64821;13.710;100.604;2023-09-08T01:43:57;101009.25;;;36.01;42.34
76095;BME280;64821;13.710;100.604;2023-09-08T01:45:00;101011.69;;;36.02;42.42
76095;BME280;64821;13.710;100.604;2023-09-08T01:46:04;100999.50;;;36.03;42.45
76095;BME280;64821;13.710;100.604;2023-09-08T01:47:08;101012.25;;;36.08;42.54
76095;BME280;64821;13.710;100.604;2023-09-08T01:48:11;101005.13;;;36.07;42.38
76095;BME280;64821;13.710;100.604;2023-09-08T01:49:15;101009.97;;;36.10;42.32
76095;BME280;64821;13.710;100.604;2023-09-08T01:50:19;101010.44;;;36.12;42.43
76095;BME280;64821;13.710;100.604;2023-09-08T01:51:23;101003.41;;;36.14;42.28
76095;BME280;64821;13.710;100.604;2023-09-08T01:52:26;101009.41;;;36.16;42.29
76095;BME280;64821;13.710;100.604;2023-09-08T01:53:30;101005.50;;;36.17;42.08
76095;BME280;64821;13.710;100.604;2023-09-08T01:54:34;101008.75;;;36.19;42.30
76095;BME280;64821;13.710;100.604;2023-09-08T01:55:38;101003.72;;;36.21;42.02
76095;BME280;64821;13.710;100.604;2023-09-08T01:56:43;100999.34;;;36.20;41.94
76095;BME280;64821;13.710;100.604;2023-09-08T01:57:47;101004.19;;;36.23;42.07
76095;BME280;64821;13.710;100.604;2023-09-08T01:58:51;101007.72;;;36.24;42.01
76095;BME280;64821;13.710;100.604;2023-09-08T01:59:54;100999.81;;;36.22;42.00
76095;BME280;64821;13.710;100.604;2023-09-08T02:00:58;101002.22;;;36.24;42.14
76095;BME280;64821;13.710;100.604;2023-09-08T02:02:02;101002.69;;;36.26;42.22
76095;BME280;64821;13.710;100.604;2023-09-08T02:03:06;101004.75;;;36.29;42.11
76095;BME280;64821;13.710;100.604;2023-09-08T02:04:10;100996.97;;;36.31;41.98
76095;BME280;64821;13.710;100.604;2023-09-08T02:05:14;100995.91;;;36.36;41.93
76095;BME280;64821;13.710;100.604;2023-09-08T02:06:18;101005.94;;;36.40;41.97
76095;BME280;64821;13.710;100.604;2023-09-08T02:07:22;100999.75;;;36.43;41.92
76095;BME280;64821;13.710;100.604;2023-09-08T02:08:25;100997.41;;;36.45;41.93
76095;BME280;64821;13.710;100.604;2023-09-08T02:09:33;100998.69;;;36.48;42.17
76095;BME280;64821;13.710;100.604;2023-09-08T02:10:39;100994.78;;;36.49;42.10
76095;BME280;64821;13.710;100.604;2023-09-08T02:11:45;100996.75;;;36.48;42.16
76095;BME280;64821;13.710;100.604;2023-09-08T02:12:48;100976.41;;;36.41;41.61
76095;BME280;64821;13.710;100.604;2023-09-08T02:13:52;100996.06;;;36.51;41.75
76095;BME280;64821;13.710;100.604;2023-09-08T02:14:59;100989.41;;;36.52;41.70
76095;BME280;64821;13.710;100.604;2023-09-08T02:16:04;100985.47;;;36.53;41.98
76095;BME280;64821;13.710;100.604;2023-09-08T02:17:08;100988.22;;;36.53;41.89
76095;BME280;64821;13.710;100.604;2023-09-08T02:18:12;100985.13;;;36.55;41.85
76095;BME280;64821;13.710;100.604;2023-09-08T02:19:16;100991.13;;;36.57;41.69
76095;BME280;64821;13.710;100.604;2023-09-08T02:20:19;100993.53;;;36.58;41.95
76095;BME280;64821;13.710;100.604;2023-09-08T02:21:23;100974.09;;;36.55;41.89
76095;BME280;64821;13.710;100.604;2023-09-08T02:22:28;100965.25;;;36.49;41.66
76095;BME280;64821;13.710;100.604;2023-09-08T02:23:31;100989.03;;;36.66;41.96
76095;BME280;64821;13.710;100.604;2023-09-08T02:24:35;100994.56;;;36.66;41.49
76095;BME280;64821;13.710;100.604;2023-09-08T02:25:39;100994.56;;;36.66;41.64
76095;BME280;64821;13.710;100.604;2023-09-08T02:26:44;100996.19;;;36.67;41.56
76095;BME280;64821;13.710;100.604;2023-09-08T02:27:48;100991.16;;;36.69;41.72
76095;BME280;64821;13.710;100.604;2023-09-08T02:28:52;100985.63;;;36.69;41.43
76095;BME280;64821;13.710;100.604;2023-09-08T02:29:56;100979.78;;;36.71;41.47
76095;BME280;64821;13.710;100.604;2023-09-08T02:30:59;100983.00;;;36.73;41.58
76095;BME280;64821;13.710;100.604;2023-09-08T02:32:04;100953.75;;;36.47;41.82
76095;BME280;64821;13.710;100.604;2023-09-08T02:33:07;100980.66;;;36.75;41.48
76095;BME280;64821;13.710;100.604;2023-09-08T02:34:11;100992.19;;;36.77;41.40
76095;BME280;64821;13.710;100.604;2023-09-08T02:35:16;100986.66;;;36.77;41.47
76095;BME280;64821;13.710;100.604;2023-09-08T02:36:19;100982.63;;;36.74;41.51
76095;BME280;64821;13.710;100.604;2023-09-08T02:37:23;100997.22;;;36.75;41.29
76095;BME280;64821;13.710;100.604;2023-09-08T02:38:27;100983.44;;;36.75;41.43
76095;BME280;64821;13.710;100.604;2023-09-08T02:39:32;100988.59;;;36.76;41.46
76095;BME280;64821;13.710;100.604;2023-09-08T02:40:35;100986.31;;;36.78;41.48
76095;BME280;64821;13.710;100.604;2023-09-08T02:41:39;100991.03;;;36.78;41.36
76095;BME280;64821;13.710;100.604;2023-09-08T02:42:45;100987.13;;;36.79;41.21
76095;BME280;64821;13.710;100.604;2023-09-08T02:43:48;100987.94;;;36.79;41.43
76095;BME280;64821;13.710;100.604;2023-09-08T02:44:52;100991.84;;;36.78;41.45
76095;BME280;64821;13.710;100.604;2023-09-08T02:45:56;100990.69;;;36.79;41.34
76095;BME280;64821;13.710;100.604;2023-09-08T02:47:00;100981.13;;;36.77;41.44
76095;BME280;64821;13.710;100.604;2023-09-08T02:48:04;100984.56;;;36.74;41.35
76095;BME280;64821;13.710;100.604;2023-09-08T02:49:08;100983.00;;;36.73;41.57
76095;BME280;64821;13.710;100.604;2023-09-08T02:50:12;100983.78;;;36.73;41.63
76095;BME280;64821;13.710;100.604;2023-09-08T02:51:16;100994.72;;;36.69;41.57
76095;BME280;64821;13.710;100.604;2023-09-08T02:52:19;100991.16;;;36.69;41.39
76095;BME280;64821;13.710;100.604;2023-09-08T02:53:23;101002.31;;;36.73;41.61
76095;BME280;64821;13.710;100.604;2023-09-08T02:54:27;100987.34;;;36.74;41.45
76095;BME280;64821;13.710;100.604;2023-09-08T02:55:31;101001.59;;;36.76;41.33
76095;BME280;64821;13.710;100.604;2023-09-08T02:56:35;101001.28;;;36.77;41.25
76095;BME280;64821;13.710;100.604;2023-09-08T02:57:39;101001.94;;;36.74;41.26
76095;BME280;64821;13.710;100.604;2023-09-08T02:58:45;100989.75;;;36.75;41.16
76095;BME280;64821;13.710;100.604;2023-09-08T02:59:49;100991.03;;;36.78;41.15
76095;BME280;64821;13.710;100.604;2023-09-08T03:00:53;100963.31;;;36.62;41.36
76095;BME280;64821;13.710;100.604;2023-09-08T03:01:57;100981.94;;;36.77;41.19
76095;BME280;64821;13.710;100.604;2023-09-08T03:03:01;100977.44;;;36.85;41.00
76095;BME280;64821;13.710;100.604;2023-09-08T03:04:05;100985.84;;;36.88;41.20
76095;BME280;64821;13.710;100.604;2023-09-08T03:05:09;100974.47;;;36.90;40.89
76095;BME280;64821;13.710;100.604;2023-09-08T03:06:14;100979.72;;;36.95;40.97
76095;BME280;64821;13.710;100.604;2023-09-08T03:07:18;100975.94;;;36.99;40.86
76095;BME280;64821;13.710;100.604;2023-09-08T03:08:23;100938.03;;;36.72;40.22
76095;BME280;64821;13.710;100.604;2023-09-08T03:09:27;100958.56;;;36.87;40.81
76095;BME280;64821;13.710;100.604;2023-09-08T03:10:31;100980.41;;;37.04;40.65
76095;BME280;64821;13.710;100.604;2023-09-08T03:11:34;100973.38;;;37.06;40.76
76095;BME280;64821;13.710;100.604;2023-09-08T03:12:38;100974.31;;;37.11;40.76
76095;BME280;64821;13.710;100.604;2023-09-08T03:13:43;100966.84;;;37.11;40.64
76095;BME280;64821;13.710;100.604;2023-09-08T03:14:47;100965.47;;;37.17;40.34
76095;BME280;64821;13.710;100.604;2023-09-08T03:15:51;100965.13;;;37.19;40.63
76095;BME280;64821;13.710;100.604;2023-09-08T03:16:55;100968.69;;;37.19;40.51
76095;BME280;64821;13.710;100.604;2023-09-08T03:17:59;100971.19;;;37.24;40.72
76095;BME280;64821;13.710;100.604;2023-09-08T03:19:02;100957.59;;;37.31;40.61
76095;BME280;64821;13.710;100.604;2023-09-08T03:20:08;100960.44;;;37.35;40.05
76095;BME280;64821;13.710;100.604;2023-09-08T03:21:14;100964.59;;;37.41;39.84
76095;BME280;64821;13.710;100.604;2023-09-08T03:22:18;100961.09;;;37.44;39.99
76095;BME280;64821;13.710;100.604;2023-09-08T03:23:21;100956.84;;;37.47;40.39
76095;BME280;64821;13.710;100.604;2023-09-08T03:24:25;100963.38;;;37.54;39.95
76095;BME280;64821;13.710;100.604;2023-09-08T03:25:29;100957.03;;;37.54;40.37
76095;BME280;64821;13.710;100.604;2023-09-08T03:26:32;100956.50;;;37.48;40.31
76095;BME280;64821;13.710;100.604;2023-09-08T03:27:36;100958.47;;;37.48;40.38
76095;BME280;64821;13.710;100.604;2023-09-08T03:28:41;100954.53;;;37.49;40.26
76095;BME280;64821;13.710;100.604;2023-09-08T03:29:47;100945.09;;;37.50;39.27
76095;BME280;64821;13.710;100.604;2023-09-08T03:30:50;100953.00;;;37.51;39.96
76095;BME280;64821;13.710;100.604;2023-09-08T03:31:54;100950.25;;;37.51;40.20
76095;BME280;64821;13.710;100.604;2023-09-08T03:32:58;100942.75;;;37.52;39.66
76095;BME280;64821;13.710;100.604;2023-09-08T03:34:02;100949.66;;;37.58;40.24
76095;BME280;64821;13.710;100.604;2023-09-08T03:35:07;100944.59;;;37.60;39.77
76095;BME280;64821;13.710;100.604;2023-09-08T03:36:11;100941.47;;;37.61;39.77
76095;BME280;64821;13.710;100.604;2023-09-08T03:37:14;100948.63;;;37.62;39.97
76095;BME280;64821;13.710;100.604;2023-09-08T03:38:18;100949.56;;;37.54;39.71
76095;BME280;64821;13.710;100.604;2023-09-08T03:39:22;100941.25;;;37.54;40.01
76095;BME280;64821;13.710;100.604;2023-09-08T03:40:26;100952.06;;;37.59;40.03
76095;BME280;64821;13.710;100.604;2023-09-08T03:41:30;100957.03;;;37.66;39.73
76095;BME280;64821;13.710;100.604;2023-09-08T03:42:34;100950.44;;;37.70;39.86
76095;BME280;64821;13.710;100.604;2023-09-08T03:43:38;100948.91;;;37.73;39.16
76095;BME280;64821;13.710;100.604;2023-09-08T03:44:42;100946.59;;;37.75;39.45
76095;BME280;64821;13.710;100.604;2023-09-08T03:45:47;100943.03;;;37.74;38.85
76095;BME280;64821;13.710;100.604;2023-09-08T03:46:51;100944.53;;;37.72;39.31
76095;BME280;64821;13.710;100.604;2023-09-08T03:47:55;100948.56;;;37.74;39.31
76095;BME280;64821;13.710;100.604;2023-09-08T03:48:59;100945.00;;;37.74;39.23
76095;BME280;64821;13.710;100.604;2023-09-08T03:50:03;100944.19;;;37.73;39.63
76095;BME280;64821;13.710;100.604;2023-09-08T03:51:07;100942.94;;;37.71;39.75
76095;BME280;64821;13.710;100.604;2023-09-08T03:52:10;100945.09;;;37.77;39.60
76095;BME280;64821;13.710;100.604;2023-09-08T03:53:14;100946.78;;;37.82;39.78
76095;BME280;64821;13.710;100.604;2023-09-08T03:54:18;100938.94;;;37.84;39.39
76095;BME280;64821;13.710;100.604;2023-09-08T03:55:22;100941.72;;;37.84;39.08
76095;BME280;64821;13.710;100.604;2023-09-08T03:56:25;100934.56;;;37.83;38.96
76095;BME280;64821;13.710;100.604;2023-09-08T03:57:29;100941.72;;;37.84;39.77
76095;BME280;64821;13.710;100.604;2023-09-08T03:58:33;100945.19;;;37.81;39.71
76095;BME280;64821;13.710;100.604;2023-09-08T03:59:37;100938.84;;;37.81;39.50
76095;BME280;64821;13.710;100.604;2023-09-08T04:00:40;100943.13;;;37.78;39.31
76095;BME280;64821;13.710;100.604;2023-09-08T04:01:46;100933.47;;;37.72;38.93
76095;BME280;64821;13.710;100.604;2023-09-08T04:02:50;100933.06;;;37.70;39.90
76095;BME280;64821;13.710;100.604;2023-09-08T04:03:54;100931.78;;;37.67;39.56
76095;BME280;64821;13.710;100.604;2023-09-08T04:04:57;100943.19;;;37.66;39.44
76095;BME280;64821;13.710;100.604;2023-09-08T04:06:01;100936.97;;;37.69;39.77
76095;BME280;64821;13.710;100.604;2023-09-08T04:07:05;100935.44;;;37.71;39.06
76095;BME280;64821;13.710;100.604;2023-09-08T04:08:09;100940.09;;;37.67;39.62
76095;BME280;64821;13.710;100.604;2023-09-08T04:09:13;100937.78;;;37.69;39.55
76095;BME280;64821;13.710;100.604;2023-09-08T04:10:17;100932.25;;;37.69;39.38
76095;BME280;64821;13.710;100.604;2023-09-08T04:11:20;100926.78;;;37.73;39.48
76095;BME280;64821;13.710;100.604;2023-09-08T04:12:24;100925.09;;;37.68;39.25
76095;BME280;64821;13.710;100.604;2023-09-08T04:13:28;100931.09;;;37.70;39.48
76095;BME280;64821;13.710;100.604;2023-09-08T04:14:32;100924.75;;;37.70;39.29
76095;BME280;64821;13.710;100.604;2023-09-08T04:15:35;100914.84;;;37.69;39.40
76095;BME280;64821;13.710;100.604;2023-09-08T04:16:39;100921.19;;;37.69;39.61
76095;BME280;64821;13.710;100.604;2023-09-08T04:17:45;100930.38;;;37.73;38.85
76095;BME280;64821;13.710;100.604;2023-09-08T04:18:49;100926.09;;;37.76;39.20
76095;BME280;64821;13.710;100.604;2023-09-08T04:19:56;100920.66;;;37.80;39.49
76095;BME280;64821;13.710;100.604;2023-09-08T04:21:00;100923.50;;;37.83;39.62
76095;BME280;64821;13.710;100.604;2023-09-08T04:22:04;100925.47;;;37.83;39.50
76095;BME280;64821;13.710;100.604;2023-09-08T04:23:08;100930.19;;;37.82;39.52
76095;BME280;64821;13.710;100.604;2023-09-08T04:24:11;100918.34;;;37.82;39.41
76095;BME280;64821;13.710;100.604;2023-09-08T04:25:15;100924.66;;;37.82;39.26
76095;BME280;64821;13.710;100.604;2023-09-08T04:26:19;100924.31;;;37.84;39.34
76095;BME280;64821;13.710;100.604;2023-09-08T04:27:23;100917.97;;;37.83;39.21
76095;BME280;64821;13.710;100.604;2023-09-08T04:28:27;100919.59;;;37.84;39.28
76095;BME280;64821;13.710;100.604;2023-09-08T04:29:30;100908.06;;;37.82;39.52
76095;BME280;64821;13.710;100.604;2023-09-08T04:30:34;100906.13;;;37.83;39.42
76095;BME280;64821;13.710;100.604;2023-09-08T04:31:38;100906.56;;;37.85;39.30
76095;BME280;64821;13.710;100.604;2023-09-08T04:32:44;100913.59;;;37.82;39.33
76095;BME280;64821;13.710;100.604;2023-09-08T04:33:48;100914.53;;;37.86;39.33
76095;BME280;64821;13.710;100.604;2023-09-08T04:34:51;100903.19;;;37.91;39.26
76095;BME280;64821;13.710;100.604;2023-09-08T04:35:55;100896.13;;;37.94;39.23
76095;BME280;64821;13.710;100.604;2023-09-08T04:36:59;100904.09;;;37.95;39.20
76095;BME280;64821;13.710;100.604;2023-09-08T04:38:03;100908.56;;;38.00;39.14
76095;BME280;64821;13.710;100.604;2023-09-08T04:39:07;100902.44;;;38.06;38.92
76095;BME280;64821;13.710;100.604;2023-09-08T04:40:11;100904.09;;;38.11;38.49
76095;BME280;64821;13.710;100.604;2023-09-08T04:41:14;100895.56;;;38.16;38.34
76095;BME280;64821;13.710;100.604;2023-09-08T04:42:19;100891.69;;;38.21;38.52
76095;BME280;64821;13.710;100.604;2023-09-08T04:43:23;100896.53;;;38.24;38.24
76095;BME280;64821;13.710;100.604;2023-09-08T04:44:26;100885.00;;;38.22;38.51
76095;BME280;64821;13.710;100.604;2023-09-08T04:45:30;100887.78;;;38.22;38.96
76095;BME280;64821;13.710;100.604;2023-09-08T04:46:34;100881.88;;;38.23;38.57
76095;BME280;64821;13.710;100.604;2023-09-08T04:47:38;100870.47;;;38.25;38.85
76095;BME280;64821;13.710;100.604;2023-09-08T04:48:44;100882.78;;;38.27;38.49
76095;BME280;64821;13.710;100.604;2023-09-08T04:49:47;100878.91;;;38.32;38.29
76095;BME280;64821;13.710;100.604;2023-09-08T04:50:51;100871.44;;;38.32;38.18
76095;BME280;64821;13.710;100.604;2023-09-08T04:51:55;100875.44;;;38.35;38.60
76095;BME280;64821;13.710;100.604;2023-09-08T04:52:59;100879.03;;;38.35;38.78
76095;BME280;64821;13.710;100.604;2023-09-08T04:54:03;100880.97;;;38.35;38.38
76095;BME280;64821;13.710;100.604;2023-09-08T04:55:07;100874.75;;;38.38;38.14
76095;BME280;64821;13.710;100.604;2023-09-08T04:56:13;100870.44;;;38.40;37.96
76095;BME280;64821;13.710;100.604;2023-09-08T04:57:17;100863.81;;;38.45;38.31
76095;BME280;64821;13.710;100.604;2023-09-08T04:58:25;100863.03;;;38.44;38.60
76095;BME280;64821;13.710;100.604;2023-09-08T04:59:29;100856.22;;;38.42;37.96
76095;BME280;64821;13.710;100.604;2023-09-08T05:00:33;100860.16;;;38.41;37.79
76095;BME280;64821;13.710;100.604;2023-09-08T05:01:37;100852.22;;;38.39;38.63
76095;BME280;64821;13.710;100.604;2023-09-08T05:02:40;100855.28;;;38.34;38.50
76095;BME280;64821;13.710;100.604;2023-09-08T05:03:46;100848.03;;;38.30;37.77
76095;BME280;64821;13.710;100.604;2023-09-08T05:04:50;100845.25;;;38.30;38.62
76095;BME280;64821;13.710;100.604;2023-09-08T05:05:54;100848.78;;;38.27;38.14
76095;BME280;64821;13.710;100.604;2023-09-08T05:06:58;100846.34;;;38.25;38.83
76095;BME280;64821;13.710;100.604;2023-09-08T05:08:01;100835.19;;;38.22;38.82
76095;BME280;64821;13.710;100.604;2023-09-08T05:09:05;100839.50;;;38.19;38.73
76095;BME280;64821;13.710;100.604;2023-09-08T05:10:10;100837.53;;;38.20;38.73
76095;BME280;64821;13.710;100.604;2023-09-08T05:11:13;100832.06;;;38.23;38.28
76095;BME280;64821;13.710;100.604;2023-09-08T05:12:17;100834.94;;;38.27;38.48
76095;BME280;64821;13.710;100.604;2023-09-08T05:13:21;100834.38;;;38.37;38.25
76095;BME280;64821;13.710;100.604;2023-09-08T05:14:33;100835.44;;;38.48;38.24
76095;BME280;64821;13.710;100.604;2023-09-08T05:15:37;100829.16;;;38.51;37.82
76095;BME280;64821;13.710;100.604;2023-09-08T05:16:41;100823.06;;;38.61;37.70
76095;BME280;64821;13.710;100.604;2023-09-08T05:17:44;100825.22;;;38.68;37.35
76095;BME280;64821;13.710;100.604;2023-09-08T05:18:50;100819.28;;;38.69;37.02
76095;BME280;64821;13.710;100.604;2023-09-08T05:19:54;100818.94;;;38.71;37.62
76095;BME280;64821;13.710;100.604;2023-09-08T05:20:58;100815.00;;;38.72;37.59
76095;BME280;64821;13.710;100.604;2023-09-08T05:22:01;100814.19;;;38.71;38.05
76095;BME280;64821;13.710;100.604;2023-09-08T05:23:05;100821.66;;;38.67;37.40
76095;BME280;64821;13.710;100.604;2023-09-08T05:24:09;100807.84;;;38.52;38.11
76095;BME280;64821;13.710;100.604;2023-09-08T05:25:13;100810.84;;;38.62;38.18
76095;BME280;64821;13.710;100.604;2023-09-08T05:26:17;100808.22;;;38.69;38.27
76095;BME280;64821;13.710;100.604;2023-09-08T05:27:21;100785.94;;;38.62;37.48
76095;BME280;64821;13.710;100.604;2023-09-08T05:28:25;100801.28;;;38.79;37.42
76095;BME280;64821;13.710;100.604;2023-09-08T05:29:28;100805.75;;;38.83;37.21